sensor_id;sensor_type;location;lat;lon;timestamp;P1;durP1;ratioP1;P2;durP2;ratioP2
58260;SDS011;44058;52.898;6.502;2022-08-01T00:01:53;15.32;;;10.25;;
58260;SDS011;44058;52.898;6.502;2022-08-01T00:04:19;13.95;;;11.02;;
58260;SDS011;44058;52.898;6.502;2022-08-01T00:06:44;15.32;;;9.98;;
58260;SDS011;44058;52.898;6.502;2022-08-01T00:09:10;12.25;;;8.98;;
58260;SDS011;44058;52.898;6.502;2022-08-01T00:11:36;12.07;;;9.18;;
58260;SDS011;44058;52.898;6.502;2022-08-01T00:14:02;14.75;;;9.85;;
58260;SDS011;44058;52.898;6.502;2022-08-01T00:16:27;13.80;;;8.55;;
58260;SDS011;44058;52.898;6.502;2022-08-01T00:18:53;8.95;;;7.68;;
58260;SDS011;44058;52.898;6.502;2022-08-01T00:21:20;9.18;;;7.35;;
58260;SDS011;44058;52.898;6.502;2022-08-01T00:23:45;9.30;;;7.57;;
58260;SDS011;44058;52.898;6.502;2022-08-01T00:26:12;9.50;;;7.32;;
58260;SDS011;44058;52.898;6.502;2022-08-01T00:28:38;8.43;;;7.05;;
58260;SDS011;44058;52.898;6.502;2022-08-01T00:31:04;8.90;;;6.53;;
58260;SDS011;44058;52.898;6.502;2022-08-01T00:33:29;8.85;;;6.97;;
58260;SDS011;44058;52.898;6.502;2022-08-01T00:35:55;8.32;;;6.72;;
58260;SDS011;44058;52.898;6.502;2022-08-01T00:38:21;8.07;;;6.97;;
58260;SDS011;44058;52.898;6.502;2022-08-01T00:40:47;9.73;;;7.57;;
58260;SDS011;44058;52.898;6.502;2022-08-01T00:43:13;10.65;;;7.80;;
58260;SDS011;44058;52.898;6.502;2022-08-01T00:45:40;7.50;;;6.70;;
58260;SDS011;44058;52.898;6.502;2022-08-01T00:48:06;10.48;;;7.00;;
58260;SDS011;44058;52.898;6.502;2022-08-01T00:50:32;11.05;;;6.95;;
58260;SDS011;44058;52.898;6.502;2022-08-01T00:52:59;9.15;;;6.80;;
58260;SDS011;44058;52.898;6.502;2022-08-01T00:55:26;9.52;;;7.03;;
58260;SDS011;44058;52.898;6.502;2022-08-01T00:57:54;8.80;;;6.68;;
58260;SDS011;44058;52.898;6.502;2022-08-01T01:00:20;7.38;;;6.60;;
58260;SDS011;44058;52.898;6.502;2022-08-01T01:02:47;7.93;;;6.20;;
58260;SDS011;44058;52.898;6.502;2022-08-01T01:05:13;9.60;;;6.63;;
58260;SDS011;44058;52.898;6.502;2022-08-01T01:13:23;8.00;;;6.57;;
58260;SDS011;44058;52.898;6.502;2022-08-01T01:15:59;7.07;;;6.38;;
58260;SDS011;44058;52.898;6.502;2022-08-01T01:18:34;13.15;;;7.65;;
58260;SDS011;44058;52.898;6.502;2022-08-01T01:23:34;8.90;;;6.90;;
58260;SDS011;44058;52.898;6.502;2022-08-01T01:31:32;4.72;;;3.40;;
58260;SDS011;44058;52.898;6.502;2022-08-01T01:34:13;4.65;;;2.90;;
58260;SDS011;44058;52.898;6.502;2022-08-01T01:36:40;5.00;;;3.25;;
58260;SDS011;44058;52.898;6.502;2022-08-01T01:39:08;3.47;;;2.80;;
58260;SDS011;44058;52.898;6.502;2022-08-01T01:41:36;2.67;;;2.47;;
58260;SDS011;44058;52.898;6.502;2022-08-01T01:44:04;3.10;;;2.30;;
58260;SDS011;44058;52.898;6.502;2022-08-01T01:46:30;2.70;;;2.10;;
58260;SDS011;44058;52.898;6.502;2022-08-01T01:48:57;2.88;;;2.38;;
58260;SDS011;44058;52.898;6.502;2022-08-01T01:51:25;2.58;;;1.70;;
58260;SDS011;44058;52.898;6.502;2022-08-01T01:53:52;3.53;;;2.47;;
58260;SDS011;44058;52.898;6.502;2022-08-01T01:56:19;3.88;;;2.70;;
58260;SDS011;44058;52.898;6.502;2022-08-01T01:58:48;3.10;;;2.90;;
58260;SDS011;44058;52.898;6.502;2022-08-01T02:01:18;2.95;;;2.25;;
58260;SDS011;44058;52.898;6.502;2022-08-01T02:03:46;2.50;;;2.28;;
58260;SDS011;44058;52.898;6.502;2022-08-01T02:06:14;3.10;;;2.45;;
58260;SDS011;44058;52.898;6.502;2022-08-01T02:08:42;3.40;;;2.67;;
58260;SDS011;44058;52.898;6.502;2022-08-01T02:11:09;2.33;;;2.13;;
58260;SDS011;44058;52.898;6.502;2022-08-01T02:13:45;3.33;;;2.78;;
58260;SDS011;44058;52.898;6.502;2022-08-01T02:16:17;3.35;;;2.15;;
58260;SDS011;44058;52.898;6.502;2022-08-01T02:18:45;4.40;;;2.38;;
58260;SDS011;44058;52.898;6.502;2022-08-01T02:21:12;4.88;;;2.47;;
58260;SDS011;44058;52.898;6.502;2022-08-01T02:23:41;4.22;;;3.22;;
58260;SDS011;44058;52.898;6.502;2022-08-01T02:26:08;2.85;;;2.47;;
58260;SDS011;44058;52.898;6.502;2022-08-01T02:28:57;5.20;;;2.78;;
58260;SDS011;44058;52.898;6.502;2022-08-01T02:31:27;2.92;;;2.60;;
58260;SDS011;44058;52.898;6.502;2022-08-01T02:34:00;3.22;;;2.90;;
58260;SDS011;44058;52.898;6.502;2022-08-01T02:36:31;4.10;;;2.88;;
58260;SDS011;44058;52.898;6.502;2022-08-01T02:39:00;5.72;;;3.80;;
58260;SDS011;44058;52.898;6.502;2022-08-01T02:41:30;6.63;;;3.25;;
58260;SDS011;44058;52.898;6.502;2022-08-01T02:46:28;3.63;;;2.87;;
58260;SDS011;44058;52.898;6.502;2022-08-01T02:49:07;2.58;;;2.38;;
58260;SDS011;44058;52.898;6.502;2022-08-01T02:51:35;3.72;;;2.05;;
58260;SDS011;44058;52.898;6.502;2022-08-01T02:54:03;4.95;;;2.35;;
58260;SDS011;44058;52.898;6.502;2022-08-01T02:56:31;3.15;;;1.75;;
58260;SDS011;44058;52.898;6.502;2022-08-01T02:59:04;3.53;;;1.80;;
58260;SDS011;44058;52.898;6.502;2022-08-01T03:01:33;4.13;;;2.13;;
58260;SDS011;44058;52.898;6.502;2022-08-01T03:04:00;3.65;;;1.75;;
58260;SDS011;44058;52.898;6.502;2022-08-01T03:06:26;4.78;;;1.50;;
58260;SDS011;44058;52.898;6.502;2022-08-01T03:08:53;4.05;;;1.75;;
58260;SDS011;44058;52.898;6.502;2022-08-01T03:11:20;3.67;;;1.60;;
58260;SDS011;44058;52.898;6.502;2022-08-01T03:13:49;3.47;;;1.73;;
58260;SDS011;44058;52.898;6.502;2022-08-01T03:16:16;2.73;;;1.80;;
58260;SDS011;44058;52.898;6.502;2022-08-01T03:18:43;5.15;;;1.98;;
58260;SDS011;44058;52.898;6.502;2022-08-01T03:21:11;3.90;;;1.83;;
58260;SDS011;44058;52.898;6.502;2022-08-01T03:23:38;4.72;;;1.67;;
58260;SDS011;44058;52.898;6.502;2022-08-01T03:26:06;5.35;;;1.77;;
58260;SDS011;44058;52.898;6.502;2022-08-01T03:28:33;4.65;;;1.70;;
58260;SDS011;44058;52.898;6.502;2022-08-01T03:31:00;5.90;;;1.67;;
58260;SDS011;44058;52.898;6.502;2022-08-01T03:33:27;6.38;;;2.00;;
58260;SDS011;44058;52.898;6.502;2022-08-01T03:35:54;3.63;;;1.80;;
58260;SDS011;44058;52.898;6.502;2022-08-01T03:38:24;4.28;;;1.63;;
58260;SDS011;44058;52.898;6.502;2022-08-01T03:43:53;3.13;;;1.70;;
58260;SDS011;44058;52.898;6.502;2022-08-01T03:46:44;5.47;;;1.77;;
58260;SDS011;44058;52.898;6.502;2022-08-01T03:49:16;5.90;;;2.40;;
58260;SDS011;44058;52.898;6.502;2022-08-01T03:51:45;4.88;;;2.08;;
58260;SDS011;44058;52.898;6.502;2022-08-01T03:54:14;6.18;;;2.15;;
58260;SDS011;44058;52.898;6.502;2022-08-01T03:56:42;7.43;;;2.42;;
58260;SDS011;44058;52.898;6.502;2022-08-01T03:59:11;5.47;;;2.10;;
58260;SDS011;44058;52.898;6.502;2022-08-01T04:01:39;6.57;;;2.10;;
58260;SDS011;44058;52.898;6.502;2022-08-01T04:04:05;6.10;;;2.75;;
58260;SDS011;44058;52.898;6.502;2022-08-01T04:06:30;4.88;;;2.00;;
58260;SDS011;44058;52.898;6.502;2022-08-01T04:08:56;7.32;;;2.42;;
58260;SDS011;44058;52.898;6.502;2022-08-01T04:11:25;4.60;;;1.85;;
58260;SDS011;44058;52.898;6.502;2022-08-01T04:13:53;5.30;;;2.08;;
58260;SDS011;44058;52.898;6.502;2022-08-01T04:16:20;6.15;;;2.03;;
58260;SDS011;44058;52.898;6.502;2022-08-01T04:18:46;7.00;;;2.55;;
58260;SDS011;44058;52.898;6.502;2022-08-01T04:21:12;10.38;;;2.90;;
58260;SDS011;44058;52.898;6.502;2022-08-01T04:23:39;5.40;;;2.63;;
58260;SDS011;44058;52.898;6.502;2022-08-01T04:26:08;5.30;;;2.28;;
58260;SDS011;44058;52.898;6.502;2022-08-01T04:28:36;7.10;;;2.63;;
58260;SDS011;44058;52.898;6.502;2022-08-01T04:31:02;7.95;;;2.55;;
58260;SDS011;44058;52.898;6.502;2022-08-01T04:33:34;9.23;;;2.85;;
58260;SDS011;44058;52.898;6.502;2022-08-01T04:36:04;4.85;;;2.53;;
58260;SDS011;44058;52.898;6.502;2022-08-01T04:38:33;4.25;;;2.42;;
58260;SDS011;44058;52.898;6.502;2022-08-01T04:41:01;4.22;;;2.28;;
58260;SDS011;44058;52.898;6.502;2022-08-01T04:43:28;8.63;;;2.95;;
58260;SDS011;44058;52.898;6.502;2022-08-01T04:45:54;6.28;;;2.70;;
58260;SDS011;44058;52.898;6.502;2022-08-01T04:48:20;6.78;;;2.70;;
58260;SDS011;44058;52.898;6.502;2022-08-01T04:50:49;7.07;;;2.70;;
58260;SDS011;44058;52.898;6.502;2022-08-01T04:53:16;5.18;;;3.05;;
58260;SDS011;44058;52.898;6.502;2022-08-01T04:55:43;6.20;;;3.20;;
58260;SDS011;44058;52.898;6.502;2022-08-01T04:58:10;3.63;;;2.25;;
58260;SDS011;44058;52.898;6.502;2022-08-01T05:00:37;8.40;;;2.83;;
58260;SDS011;44058;52.898;6.502;2022-08-01T05:03:03;6.75;;;3.00;;
58260;SDS011;44058;52.898;6.502;2022-08-01T05:05:29;6.28;;;2.90;;
58260;SDS011;44058;52.898;6.502;2022-08-01T05:07:55;6.85;;;2.90;;
58260;SDS011;44058;52.898;6.502;2022-08-01T05:10:21;5.82;;;2.45;;
58260;SDS011;44058;52.898;6.502;2022-08-01T05:12:47;12.10;;;3.70;;
58260;SDS011;44058;52.898;6.502;2022-08-01T05:15:13;6.35;;;3.25;;
58260;SDS011;44058;52.898;6.502;2022-08-01T05:17:38;9.13;;;3.15;;
58260;SDS011;44058;52.898;6.502;2022-08-01T05:20:04;6.80;;;2.65;;
58260;SDS011;44058;52.898;6.502;2022-08-01T05:22:31;10.73;;;3.40;;
58260;SDS011;44058;52.898;6.502;2022-08-01T05:24:57;7.72;;;2.97;;
58260;SDS011;44058;52.898;6.502;2022-08-01T05:27:24;8.60;;;2.92;;
58260;SDS011;44058;52.898;6.502;2022-08-01T05:29:50;11.02;;;3.33;;
58260;SDS011;44058;52.898;6.502;2022-08-01T05:32:16;8.20;;;2.80;;
58260;SDS011;44058;52.898;6.502;2022-08-01T05:34:42;8.23;;;3.05;;
58260;SDS011;44058;52.898;6.502;2022-08-01T05:37:08;10.70;;;2.85;;
58260;SDS011;44058;52.898;6.502;2022-08-01T05:39:34;8.07;;;2.85;;
58260;SDS011;44058;52.898;6.502;2022-08-01T05:42:00;6.38;;;2.90;;
58260;SDS011;44058;52.898;6.502;2022-08-01T05:44:26;8.90;;;3.67;;
58260;SDS011;44058;52.898;6.502;2022-08-01T05:46:51;6.38;;;2.95;;
58260;SDS011;44058;52.898;6.502;2022-08-01T05:49:17;8.95;;;3.30;;
58260;SDS011;44058;52.898;6.502;2022-08-01T05:51:43;5.57;;;2.70;;
58260;SDS011;44058;52.898;6.502;2022-08-01T05:54:09;13.27;;;3.10;;
58260;SDS011;44058;52.898;6.502;2022-08-01T05:56:34;7.47;;;2.80;;
58260;SDS011;44058;52.898;6.502;2022-08-01T05:59:00;9.55;;;3.17;;
58260;SDS011;44058;52.898;6.502;2022-08-01T06:01:26;8.95;;;2.70;;
58260;SDS011;44058;52.898;6.502;2022-08-01T06:03:52;6.60;;;2.55;;
58260;SDS011;44058;52.898;6.502;2022-08-01T06:06:19;8.98;;;3.03;;
58260;SDS011;44058;52.898;6.502;2022-08-01T06:08:46;8.18;;;2.88;;
58260;SDS011;44058;52.898;6.502;2022-08-01T06:11:12;10.95;;;3.13;;
58260;SDS011;44058;52.898;6.502;2022-08-01T06:13:38;10.57;;;3.10;;
58260;SDS011;44058;52.898;6.502;2022-08-01T06:16:03;4.50;;;2.35;;
58260;SDS011;44058;52.898;6.502;2022-08-01T06:18:30;13.68;;;3.28;;
58260;SDS011;44058;52.898;6.502;2022-08-01T06:20:55;6.15;;;2.33;;
58260;SDS011;44058;52.898;6.502;2022-08-01T06:23:21;10.68;;;3.35;;
58260;SDS011;44058;52.898;6.502;2022-08-01T06:25:47;12.32;;;3.42;;
58260;SDS011;44058;52.898;6.502;2022-08-01T06:28:13;10.75;;;3.08;;
58260;SDS011;44058;52.898;6.502;2022-08-01T06:30:39;8.65;;;2.90;;
58260;SDS011;44058;52.898;6.502;2022-08-01T06:33:05;13.00;;;3.50;;
58260;SDS011;44058;52.898;6.502;2022-08-01T06:35:30;9.02;;;2.85;;
58260;SDS011;44058;52.898;6.502;2022-08-01T06:37:57;13.38;;;2.95;;
58260;SDS011;44058;52.898;6.502;2022-08-01T06:40:22;10.10;;;3.20;;
58260;SDS011;44058;52.898;6.502;2022-08-01T06:42:49;9.02;;;2.72;;
58260;SDS011;44058;52.898;6.502;2022-08-01T06:45:15;8.73;;;2.90;;
58260;SDS011;44058;52.898;6.502;2022-08-01T06:47:41;10.05;;;2.92;;
58260;SDS011;44058;52.898;6.502;2022-08-01T06:50:08;12.75;;;3.47;;
58260;SDS011;44058;52.898;6.502;2022-08-01T06:52:35;11.32;;;3.10;;
58260;SDS011;44058;52.898;6.502;2022-08-01T06:55:01;8.70;;;2.80;;
58260;SDS011;44058;52.898;6.502;2022-08-01T06:57:28;9.40;;;2.90;;
58260;SDS011;44058;52.898;6.502;2022-08-01T06:59:54;13.18;;;3.15;;
58260;SDS011;44058;52.898;6.502;2022-08-01T07:02:22;9.60;;;3.10;;
58260;SDS011;44058;52.898;6.502;2022-08-01T07:04:48;12.38;;;3.22;;
58260;SDS011;44058;52.898;6.502;2022-08-01T07:07:13;10.93;;;2.95;;
58260;SDS011;44058;52.898;6.502;2022-08-01T07:09:39;14.82;;;3.45;;
58260;SDS011;44058;52.898;6.502;2022-08-01T07:12:08;12.88;;;4.10;;
58260;SDS011;44058;52.898;6.502;2022-08-01T07:14:34;13.25;;;3.53;;
58260;SDS011;44058;52.898;6.502;2022-08-01T07:17:00;13.85;;;3.63;;
58260;SDS011;44058;52.898;6.502;2022-08-01T07:19:25;12.27;;;3.47;;
58260;SDS011;44058;52.898;6.502;2022-08-01T07:21:52;13.57;;;3.60;;
58260;SDS011;44058;52.898;6.502;2022-08-01T07:24:18;11.95;;;3.05;;
58260;SDS011;44058;52.898;6.502;2022-08-01T07:26:45;11.85;;;3.25;;
58260;SDS011;44058;52.898;6.502;2022-08-01T07:29:12;18.52;;;3.30;;
58260;SDS011;44058;52.898;6.502;2022-08-01T07:31:38;12.35;;;2.80;;
58260;SDS011;44058;52.898;6.502;2022-08-01T07:34:05;15.10;;;3.67;;
58260;SDS011;44058;52.898;6.502;2022-08-01T07:36:30;11.68;;;3.10;;
58260;SDS011;44058;52.898;6.502;2022-08-01T07:38:56;13.02;;;3.40;;
58260;SDS011;44058;52.898;6.502;2022-08-01T07:41:22;11.43;;;3.53;;
58260;SDS011;44058;52.898;6.502;2022-08-01T07:43:48;13.80;;;3.58;;
58260;SDS011;44058;52.898;6.502;2022-08-01T07:46:14;14.30;;;3.50;;
58260;SDS011;44058;52.898;6.502;2022-08-01T07:48:41;15.18;;;3.80;;
58260;SDS011;44058;52.898;6.502;2022-08-01T07:51:07;11.00;;;3.15;;
58260;SDS011;44058;52.898;6.502;2022-08-01T07:53:43;10.52;;;2.60;;
58260;SDS011;44058;52.898;6.502;2022-08-01T07:56:09;12.27;;;2.90;;
58260;SDS011;44058;52.898;6.502;2022-08-01T07:58:35;9.25;;;2.70;;
58260;SDS011;44058;52.898;6.502;2022-08-01T08:01:01;12.57;;;3.13;;
58260;SDS011;44058;52.898;6.502;2022-08-01T08:03:27;13.63;;;3.22;;
58260;SDS011;44058;52.898;6.502;2022-08-01T08:05:53;12.48;;;3.42;;
58260;SDS011;44058;52.898;6.502;2022-08-01T08:08:19;10.85;;;2.65;;
58260;SDS011;44058;52.898;6.502;2022-08-01T08:10:44;14.10;;;3.40;;
58260;SDS011;44058;52.898;6.502;2022-08-01T08:13:10;14.45;;;3.15;;
58260;SDS011;44058;52.898;6.502;2022-08-01T08:15:36;9.48;;;3.10;;
58260;SDS011;44058;52.898;6.502;2022-08-01T08:18:05;13.73;;;2.90;;
58260;SDS011;44058;52.898;6.502;2022-08-01T08:20:31;12.07;;;3.03;;
58260;SDS011;44058;52.898;6.502;2022-08-01T08:22:57;11.75;;;3.28;;
58260;SDS011;44058;52.898;6.502;2022-08-01T08:25:23;11.55;;;2.65;;
58260;SDS011;44058;52.898;6.502;2022-08-01T08:27:50;12.52;;;2.47;;
58260;SDS011;44058;52.898;6.502;2022-08-01T08:30:16;9.57;;;2.63;;
58260;SDS011;44058;52.898;6.502;2022-08-01T08:32:42;8.98;;;2.70;;
58260;SDS011;44058;52.898;6.502;2022-08-01T08:35:08;9.57;;;2.42;;
58260;SDS011;44058;52.898;6.502;2022-08-01T08:37:35;11.15;;;2.75;;
58260;SDS011;44058;52.898;6.502;2022-08-01T08:40:05;12.27;;;2.80;;
58260;SDS011;44058;52.898;6.502;2022-08-01T08:42:31;12.02;;;2.90;;
58260;SDS011;44058;52.898;6.502;2022-08-01T08:44:57;14.25;;;2.72;;
58260;SDS011;44058;52.898;6.502;2022-08-01T08:47:23;9.93;;;2.50;;
58260;SDS011;44058;52.898;6.502;2022-08-01T08:49:51;7.00;;;2.45;;
58260;SDS011;44058;52.898;6.502;2022-08-01T08:52:18;6.18;;;2.15;;
58260;SDS011;44058;52.898;6.502;2022-08-01T08:54:46;8.23;;;2.05;;
58260;SDS011;44058;52.898;6.502;2022-08-01T08:57:13;9.02;;;2.25;;
58260;SDS011;44058;52.898;6.502;2022-08-01T08:59:39;8.05;;;2.60;;
58260;SDS011;44058;52.898;6.502;2022-08-01T09:02:06;9.93;;;2.17;;
58260;SDS011;44058;52.898;6.502;2022-08-01T09:04:35;9.30;;;2.22;;
58260;SDS011;44058;52.898;6.502;2022-08-01T09:07:04;8.48;;;2.63;;
58260;SDS011;44058;52.898;6.502;2022-08-01T09:09:30;8.63;;;2.28;;
58260;SDS011;44058;52.898;6.502;2022-08-01T09:11:56;6.90;;;2.22;;
58260;SDS011;44058;52.898;6.502;2022-08-01T09:14:22;9.10;;;1.70;;
58260;SDS011;44058;52.898;6.502;2022-08-01T09:17:05;9.73;;;2.70;;
58260;SDS011;44058;52.898;6.502;2022-08-01T09:19:40;9.02;;;2.08;;
58260;SDS011;44058;52.898;6.502;2022-08-01T09:22:14;8.15;;;2.22;;
58260;SDS011;44058;52.898;6.502;2022-08-01T09:27:31;7.93;;;1.77;;
58260;SDS011;44058;52.898;6.502;2022-08-01T09:30:07;7.63;;;1.85;;
58260;SDS011;44058;52.898;6.502;2022-08-01T09:35:27;9.13;;;2.20;;
58260;SDS011;44058;52.898;6.502;2022-08-01T09:40:46;8.65;;;2.10;;
58260;SDS011;44058;52.898;6.502;2022-08-01T09:43:27;8.80;;;2.10;;
58260;SDS011;44058;52.898;6.502;2022-08-01T09:45:57;6.07;;;1.92;;
58260;SDS011;44058;52.898;6.502;2022-08-01T09:48:23;6.25;;;1.65;;
58260;SDS011;44058;52.898;6.502;2022-08-01T09:50:50;8.00;;;1.85;;
58260;SDS011;44058;52.898;6.502;2022-08-01T09:53:17;6.77;;;1.90;;
58260;SDS011;44058;52.898;6.502;2022-08-01T09:55:43;5.20;;;1.70;;
58260;SDS011;44058;52.898;6.502;2022-08-01T09:58:09;7.30;;;2.00;;
58260;SDS011;44058;52.898;6.502;2022-08-01T10:00:36;7.30;;;1.50;;
58260;SDS011;44058;52.898;6.502;2022-08-01T10:03:23;5.45;;;1.88;;
58260;SDS011;44058;52.898;6.502;2022-08-01T10:05:51;6.60;;;1.75;;
58260;SDS011;44058;52.898;6.502;2022-08-01T10:08:18;7.22;;;1.90;;
58260;SDS011;44058;52.898;6.502;2022-08-01T10:13:32;5.43;;;1.80;;
58260;SDS011;44058;52.898;6.502;2022-08-01T10:15:59;3.85;;;1.48;;
58260;SDS011;44058;52.898;6.502;2022-08-01T10:18:25;5.32;;;1.50;;
58260;SDS011;44058;52.898;6.502;2022-08-01T10:20:53;6.45;;;1.80;;
58260;SDS011;44058;52.898;6.502;2022-08-01T10:23:19;7.65;;;1.80;;
58260;SDS011;44058;52.898;6.502;2022-08-01T10:25:46;6.25;;;1.67;;
58260;SDS011;44058;52.898;6.502;2022-08-01T10:28:14;3.58;;;1.40;;
58260;SDS011;44058;52.898;6.502;2022-08-01T10:30:44;5.13;;;1.77;;
58260;SDS011;44058;52.898;6.502;2022-08-01T10:33:12;6.07;;;1.52;;
58260;SDS011;44058;52.898;6.502;2022-08-01T10:35:38;12.15;;;1.80;;
58260;SDS011;44058;52.898;6.502;2022-08-01T10:38:05;4.10;;;1.27;;
58260;SDS011;44058;52.898;6.502;2022-08-01T10:40:31;7.10;;;1.88;;
58260;SDS011;44058;52.898;6.502;2022-08-01T10:42:57;5.53;;;1.52;;
58260;SDS011;44058;52.898;6.502;2022-08-01T10:45:23;3.33;;;1.23;;
58260;SDS011;44058;52.898;6.502;2022-08-01T10:48:05;5.85;;;1.67;;
58260;SDS011;44058;52.898;6.502;2022-08-01T10:50:43;5.38;;;1.42;;
58260;SDS011;44058;52.898;6.502;2022-08-01T10:53:17;5.35;;;1.55;;
58260;SDS011;44058;52.898;6.502;2022-08-01T10:58:26;4.95;;;1.65;;
58260;SDS011;44058;52.898;6.502;2022-08-01T11:01:15;6.20;;;1.50;;
58260;SDS011;44058;52.898;6.502;2022-08-01T11:03:42;5.95;;;1.45;;
58260;SDS011;44058;52.898;6.502;2022-08-01T11:06:17;5.00;;;1.20;;
58260;SDS011;44058;52.898;6.502;2022-08-01T11:08:51;5.63;;;1.48;;
58260;SDS011;44058;52.898;6.502;2022-08-01T11:11:19;5.07;;;1.60;;
58260;SDS011;44058;52.898;6.502;2022-08-01T11:19:01;6.20;;;1.75;;
58260;SDS011;44058;52.898;6.502;2022-08-01T11:27:30;4.53;;;1.50;;
58260;SDS011;44058;52.898;6.502;2022-08-01T11:32:46;4.45;;;1.80;;
58260;SDS011;44058;52.898;6.502;2022-08-01T11:35:18;6.05;;;1.63;;
58260;SDS011;44058;52.898;6.502;2022-08-01T11:37:46;6.15;;;1.58;;
58260;SDS011;44058;52.898;6.502;2022-08-01T11:40:28;6.10;;;1.52;;
58260;SDS011;44058;52.898;6.502;2022-08-01T11:48:18;4.50;;;1.35;;
58260;SDS011;44058;52.898;6.502;2022-08-01T11:50:45;6.25;;;1.52;;
58260;SDS011;44058;52.898;6.502;2022-08-01T11:53:11;9.25;;;1.95;;
58260;SDS011;44058;52.898;6.502;2022-08-01T11:55:43;5.05;;;1.45;;
58260;SDS011;44058;52.898;6.502;2022-08-01T11:58:26;5.22;;;1.25;;
58260;SDS011;44058;52.898;6.502;2022-08-01T12:00:53;4.70;;;1.55;;
58260;SDS011;44058;52.898;6.502;2022-08-01T12:03:38;3.55;;;1.20;;
58260;SDS011;44058;52.898;6.502;2022-08-01T12:06:04;7.70;;;1.70;;
58260;SDS011;44058;52.898;6.502;2022-08-01T12:08:31;6.97;;;1.70;;
58260;SDS011;44058;52.898;6.502;2022-08-01T12:10:59;6.53;;;1.55;;
58260;SDS011;44058;52.898;6.502;2022-08-01T12:13:26;5.20;;;1.60;;
58260;SDS011;44058;52.898;6.502;2022-08-01T12:15:52;5.05;;;1.80;;
58260;SDS011;44058;52.898;6.502;2022-08-01T12:18:18;5.38;;;1.60;;
58260;SDS011;44058;52.898;6.502;2022-08-01T12:20:45;3.10;;;1.30;;
58260;SDS011;44058;52.898;6.502;2022-08-01T12:23:12;3.47;;;1.13;;
58260;SDS011;44058;52.898;6.502;2022-08-01T12:25:40;7.88;;;1.13;;
58260;SDS011;44058;52.898;6.502;2022-08-01T12:28:09;3.83;;;1.35;;
58260;SDS011;44058;52.898;6.502;2022-08-01T12:30:38;3.22;;;1.13;;
58260;SDS011;44058;52.898;6.502;2022-08-01T12:33:04;4.03;;;1.40;;
58260;SDS011;44058;52.898;6.502;2022-08-01T12:35:32;3.20;;;1.33;;
58260;SDS011;44058;52.898;6.502;2022-08-01T12:38:03;5.53;;;1.40;;
58260;SDS011;44058;52.898;6.502;2022-08-01T12:40:35;5.90;;;1.58;;
58260;SDS011;44058;52.898;6.502;2022-08-01T12:43:08;4.68;;;1.60;;
58260;SDS011;44058;52.898;6.502;2022-08-01T12:45:41;6.07;;;1.40;;
58260;SDS011;44058;52.898;6.502;2022-08-01T12:48:09;8.32;;;1.65;;
58260;SDS011;44058;52.898;6.502;2022-08-01T12:53:03;9.23;;;1.85;;
58260;SDS011;44058;52.898;6.502;2022-08-01T12:55:29;3.25;;;1.13;;
58260;SDS011;44058;52.898;6.502;2022-08-01T12:58:30;6.78;;;1.63;;
58260;SDS011;44058;52.898;6.502;2022-08-01T13:00:48;6.85;;;1.65;;
58260;SDS011;44058;52.898;6.502;2022-08-01T13:05:49;7.38;;;1.40;;
58260;SDS011;44058;52.898;6.502;2022-08-01T13:08:16;5.78;;;1.05;;
58260;SDS011;44058;52.898;6.502;2022-08-01T13:10:43;4.40;;;1.30;;
58260;SDS011;44058;52.898;6.502;2022-08-01T13:13:09;5.40;;;1.40;;
58260;SDS011;44058;52.898;6.502;2022-08-01T13:15:36;4.72;;;1.42;;
58260;SDS011;44058;52.898;6.502;2022-08-01T13:23:38;4.18;;;1.10;;
58260;SDS011;44058;52.898;6.502;2022-08-01T13:26:05;5.85;;;1.50;;
58260;SDS011;44058;52.898;6.502;2022-08-01T13:28:31;6.13;;;1.23;;
58260;SDS011;44058;52.898;6.502;2022-08-01T13:30:58;4.53;;;1.10;;
58260;SDS011;44058;52.898;6.502;2022-08-01T13:33:27;3.88;;;1.17;;
58260;SDS011;44058;52.898;6.502;2022-08-01T13:36:04;4.30;;;1.33;;
58260;SDS011;44058;52.898;6.502;2022-08-01T13:38:31;6.07;;;1.33;;
58260;SDS011;44058;52.898;6.502;2022-08-01T13:41:15;5.03;;;1.30;;
58260;SDS011;44058;52.898;6.502;2022-08-01T13:43:41;3.42;;;1.30;;
58260;SDS011;44058;52.898;6.502;2022-08-01T13:46:06;3.53;;;1.20;;
58260;SDS011;44058;52.898;6.502;2022-08-01T13:48:32;5.63;;;1.50;;
58260;SDS011;44058;52.898;6.502;2022-08-01T13:50:58;7.05;;;1.40;;
58260;SDS011;44058;52.898;6.502;2022-08-01T13:53:24;3.83;;;1.20;;
58260;SDS011;44058;52.898;6.502;2022-08-01T13:55:50;6.63;;;1.30;;
58260;SDS011;44058;52.898;6.502;2022-08-01T13:58:15;5.32;;;1.23;;
58260;SDS011;44058;52.898;6.502;2022-08-01T14:00:41;4.78;;;1.10;;
58260;SDS011;44058;52.898;6.502;2022-08-01T14:03:07;3.83;;;1.40;;
58260;SDS011;44058;52.898;6.502;2022-08-01T14:05:35;4.43;;;1.33;;
58260;SDS011;44058;52.898;6.502;2022-08-01T14:08:01;3.92;;;1.20;;
58260;SDS011;44058;52.898;6.502;2022-08-01T14:10:27;4.78;;;1.38;;
58260;SDS011;44058;52.898;6.502;2022-08-01T14:12:57;5.63;;;1.40;;
58260;SDS011;44058;52.898;6.502;2022-08-01T14:15:23;3.03;;;1.10;;
58260;SDS011;44058;52.898;6.502;2022-08-01T14:17:50;5.85;;;1.30;;
58260;SDS011;44058;52.898;6.502;2022-08-01T14:20:16;6.80;;;1.77;;
58260;SDS011;44058;52.898;6.502;2022-08-01T14:22:47;6.47;;;1.48;;
58260;SDS011;44058;52.898;6.502;2022-08-01T14:25:13;6.63;;;1.55;;
58260;SDS011;44058;52.898;6.502;2022-08-01T14:27:39;5.15;;;1.55;;
58260;SDS011;44058;52.898;6.502;2022-08-01T14:30:07;4.15;;;1.52;;
58260;SDS011;44058;52.898;6.502;2022-08-01T14:32:33;3.83;;;1.25;;
58260;SDS011;44058;52.898;6.502;2022-08-01T14:35:03;4.05;;;1.30;;
58260;SDS011;44058;52.898;6.502;2022-08-01T14:37:30;4.25;;;1.02;;
58260;SDS011;44058;52.898;6.502;2022-08-01T14:39:57;6.75;;;1.20;;
58260;SDS011;44058;52.898;6.502;2022-08-01T14:42:23;5.05;;;1.38;;
58260;SDS011;44058;52.898;6.502;2022-08-01T14:44:49;4.53;;;1.27;;
58260;SDS011;44058;52.898;6.502;2022-08-01T14:47:14;4.97;;;1.20;;
58260;SDS011;44058;52.898;6.502;2022-08-01T14:49:40;6.50;;;1.50;;
58260;SDS011;44058;52.898;6.502;2022-08-01T14:52:06;4.10;;;1.40;;
58260;SDS011;44058;52.898;6.502;2022-08-01T14:54:32;5.80;;;1.30;;
58260;SDS011;44058;52.898;6.502;2022-08-01T14:56:57;3.10;;;1.00;;
58260;SDS011;44058;52.898;6.502;2022-08-01T14:59:23;2.90;;;0.77;;
58260;SDS011;44058;52.898;6.502;2022-08-01T15:01:49;3.05;;;1.17;;
58260;SDS011;44058;52.898;6.502;2022-08-01T15:04:15;3.75;;;1.38;;
58260;SDS011;44058;52.898;6.502;2022-08-01T15:06:42;2.90;;;1.10;;
58260;SDS011;44058;52.898;6.502;2022-08-01T15:09:08;4.05;;;1.10;;
58260;SDS011;44058;52.898;6.502;2022-08-01T15:11:34;3.88;;;1.35;;
58260;SDS011;44058;52.898;6.502;2022-08-01T15:14:00;2.65;;;1.10;;
58260;SDS011;44058;52.898;6.502;2022-08-01T15:16:44;2.75;;;1.10;;
58260;SDS011;44058;52.898;6.502;2022-08-01T15:19:10;3.55;;;0.90;;
58260;SDS011;44058;52.898;6.502;2022-08-01T15:21:38;4.32;;;1.25;;
58260;SDS011;44058;52.898;6.502;2022-08-01T15:24:04;4.35;;;1.60;;
58260;SDS011;44058;52.898;6.502;2022-08-01T15:26:30;5.70;;;1.25;;
58260;SDS011;44058;52.898;6.502;2022-08-01T15:28:56;2.95;;;1.17;;
58260;SDS011;44058;52.898;6.502;2022-08-01T15:31:21;3.20;;;1.13;;
58260;SDS011;44058;52.898;6.502;2022-08-01T15:33:47;2.70;;;1.08;;
58260;SDS011;44058;52.898;6.502;2022-08-01T15:36:13;3.95;;;1.25;;
58260;SDS011;44058;52.898;6.502;2022-08-01T15:38:39;4.45;;;1.13;;
58260;SDS011;44058;52.898;6.502;2022-08-01T15:41:04;3.67;;;1.30;;
58260;SDS011;44058;52.898;6.502;2022-08-01T15:43:30;3.63;;;0.93;;
58260;SDS011;44058;52.898;6.502;2022-08-01T15:45:56;5.43;;;1.30;;
58260;SDS011;44058;52.898;6.502;2022-08-01T15:48:23;4.50;;;0.93;;
58260;SDS011;44058;52.898;6.502;2022-08-01T15:50:48;3.35;;;1.40;;
58260;SDS011;44058;52.898;6.502;2022-08-01T15:53:16;4.80;;;1.00;;